| time (UTC) | temp C | wind direction | speed KPH | gust KPH | rain 1hr cm | rain 24hr cm | rain mn cm | humidity % | barometer mb |
| 20260507073016 | 26 | 347 | 1.6 | 3.2 | 0.00 | 0.00 | 0.00 | 46 | 1011.2 |
| 20260507072016 | 26 | 348 | 0.0 | 3.2 | 0.00 | 0.00 | 0.00 | 45 | 1011.2 |
| 20260507071037 | 26 | 338 | 3.2 | 4.8 | 0.00 | 0.00 | 0.00 | 45 | 1011.3 |
| 20260507070016 | 26 | 12 | 0.0 | 3.2 | 0.00 | 0.00 | 0.00 | 44 | 1011.5 |
| 20260507065016 | 26 | 349 | 1.6 | 4.8 | 0.00 | 0.00 | 0.00 | 44 | 1011.3 |
| 20260507064016 | 26 | 342 | 3.2 | 8.0 | 0.00 | 0.00 | 0.00 | 44 | 1011.5 |
| 20260507063016 | 26 | 8 | 3.2 | 8.0 | 0.00 | 0.00 | 0.00 | 45 | 1011.4 |
| 20260507062017 | 26 | 12 | 1.6 | 8.0 | 0.00 | 0.00 | 0.00 | 45 | 1011.7 |
| 20260507061017 | 26 | 22 | 1.6 | 6.4 | 0.00 | 0.00 | 0.00 | 47 | 1011.8 |
| 20260507060057 | 26 | 21 | 4.8 | 8.0 | 0.00 | 0.00 | 0.00 | 47 | 1011.6 |
| 20260507055016 | 26 | 329 | 3.2 | 6.4 | 0.00 | 0.00 | 0.00 | 47 | 1011.9 |
| 20260507054016 | 26 | 318 | 1.6 | 6.4 | 0.00 | 0.00 | 0.00 | 46 | 1011.9 |
| 20260507053016 | 26 | 352 | 0.0 | 3.2 | 0.00 | 0.00 | 0.00 | 45 | 1011.9 |
| 20260507052017 | 26 | 5 | 1.6 | 3.2 | 0.00 | 0.00 | 0.00 | 45 | 1012.0 |
| 20260507051016 | 26 | 325 | 1.6 | 4.8 | 0.00 | 0.00 | 0.00 | 44 | 1011.8 |
| 20260507050016 | 26 | 301 | 1.6 | 3.2 | 0.00 | 0.00 | 0.00 | 43 | 1011.5 |
| 20260507045016 | 26 | 296 | 1.6 | 4.8 | 0.00 | 0.00 | 0.00 | 43 | 1011.9 |
| 20260507044016 | 26 | 309 | 1.6 | 3.2 | 0.00 | 0.00 | 0.00 | 42 | 1011.7 |
| 20260507043036 | 26 | 315 | 1.6 | 3.2 | 0.00 | 0.00 | 0.00 | 42 | 1011.6 |
| 20260507042016 | 26 | 332 | 0.0 | 3.2 | 0.00 | 0.00 | 0.00 | 42 | 1011.6 |
| 20260507041016 | 27 | 329 | 1.6 | 3.2 | 0.00 | 0.00 | 0.00 | 41 | 1011.5 |
| 20260507040016 | 27 | 297 | 3.2 | 4.8 | 0.00 | 0.00 | 0.00 | 41 | 1011.6 |
| 20260507035036 | 27 | 250 | 1.6 | 3.2 | 0.00 | 0.00 | 0.00 | 42 | 1011.5 |
| 20260507034036 | 27 | 211 | 1.6 | 4.8 | 0.00 | 0.00 | 0.00 | 43 | 1011.6 |
| 20260507033017 | 27 | 318 | 3.2 | 4.8 | 0.00 | 0.00 | 0.00 | 44 | 1011.3 |
| 20260507032017 | 27 | 315 | 3.2 | 4.8 | 0.00 | 0.00 | 0.00 | 45 | 1011.3 |
| 20260507031016 | 27 | 301 | 3.2 | 6.4 | 0.00 | 0.00 | 0.00 | 45 | 1011.3 |
| 20260507030016 | 27 | 309 | 3.2 | 8.0 | 0.00 | 0.00 | 0.00 | 47 | 1011.2 |
| 20260507025016 | 27 | 296 | 1.6 | 6.4 | 0.00 | 0.00 | 0.00 | 49 | 1011.1 |
| 20260507024016 | 27 | 311 | 4.8 | 16.1 | 0.00 | 0.00 | 0.00 | 48 | 1011.1 |
| 20260507023016 | 27 | 291 | 4.8 | 9.7 | 0.00 | 0.00 | 0.00 | 49 | 1011.0 |
| 20260507022057 | 27 | 305 | 4.8 | 9.7 | 0.00 | 0.00 | 0.00 | 49 | 1010.9 |
| 20260507021016 | 27 | 285 | 3.2 | 16.1 | 0.00 | 0.00 | 0.00 | 49 | 1010.9 |
| 20260507020016 | 28 | 309 | 6.4 | 19.3 | 0.00 | 0.00 | 0.00 | 48 | 1010.8 |
| 20260507015016 | 28 | 279 | 3.2 | 8.0 | 0.00 | 0.00 | 0.00 | 48 | 1010.6 |
| 20260507014036 | 28 | 303 | 4.8 | 12.9 | 0.00 | 0.00 | 0.00 | 47 | 1010.6 |
| 20260507013016 | 28 | 302 | 3.2 | 9.7 | 0.00 | 0.00 | 0.00 | 47 | 1010.5 |
| 20260507012017 | 28 | 292 | 4.8 | 12.9 | 0.00 | 0.00 | 0.00 | 47 | 1010.6 |
| 20260507011016 | 29 | 305 | 4.8 | 12.9 | 0.00 | 0.00 | 0.00 | 46 | 1010.3 |
| 20260507010016 | 30 | 290 | 3.2 | 12.9 | 0.00 | 0.00 | 0.00 | 45 | 1010.2 |
| 20260507005016 | 30 | 301 | 6.4 | 19.3 | 0.00 | 0.00 | 0.00 | 43 | 1010.0 |
| 20260507004016 | 30 | 289 | 4.8 | 19.3 | 0.00 | 0.00 | 0.00 | 44 | 1010.0 |
| 20260507003016 | 30 | 290 | 6.4 | 14.5 | 0.00 | 0.00 | 0.00 | 44 | 1009.8 |
| 20260507002016 | 30 | 270 | 8.0 | 19.3 | 0.00 | 0.00 | 0.00 | 44 | 1009.7 |
| 20260507001017 | 31 | 286 | 8.0 | 17.7 | 0.00 | 0.00 | 0.00 | 43 | 1009.6 |
| 20260507000016 | 31 | 284 | 8.0 | 20.9 | 0.00 | 0.00 | 0.00 | 42 | 1009.6 |
| 20260506235016 | 31 | 301 | 6.4 | 19.3 | 0.00 | 0.00 | 0.00 | 43 | 1009.6 |
| 20260506234016 | 31 | 284 | 6.4 | 22.5 | 0.00 | 0.00 | 0.00 | 42 | 1009.6 |
| 20260506233016 | 31 | 303 | 6.4 | 20.9 | 0.00 | 0.00 | 0.00 | 41 | 1009.6 |
| 20260506232016 | 32 | 292 | 8.0 | 19.3 | 0.00 | 0.00 | 0.00 | 41 | 1009.6 |
| 20260506231036 | 32 | 297 | 9.7 | 20.9 | 0.00 | 0.00 | 0.00 | 39 | 1009.6 |
| 20260506230036 | 32 | 319 | 9.7 | 24.1 | 0.00 | 0.00 | 0.00 | 37 | 1009.5 |
| 20260506225016 | 32 | 299 | 6.4 | 16.1 | 0.00 | 0.00 | 0.00 | 38 | 1009.5 |
| 20260506224016 | 32 | 285 | 8.0 | 20.9 | 0.00 | 0.00 | 0.00 | 37 | 1009.6 |
| 20260506223016 | 32 | 300 | 8.0 | 20.9 | 0.00 | 0.00 | 0.00 | 36 | 1009.6 |
| 20260506222016 | 33 | 309 | 11.3 | 24.1 | 0.00 | 0.00 | 0.00 | 35 | 1009.7 |
| 20260506221016 | 33 | 303 | 9.7 | 24.1 | 0.00 | 0.00 | 0.00 | 34 | 1009.7 |
| 20260506220016 | 34 | 293 | 9.7 | 22.5 | 0.00 | 0.00 | 0.00 | 32 | 1009.6 |
| 20260506215016 | 36 | 266 | 9.7 | 22.5 | 0.00 | 0.00 | 0.00 | 29 | 1009.5 |
| 20260506214016 | 36 | 281 | 3.2 | 14.5 | 0.00 | 0.00 | 0.00 | 27 | 1009.5 |
| 20260506213016 | 36 | 310 | 6.4 | 19.3 | 0.00 | 0.00 | 0.00 | 28 | 1009.5 |
| 20260506212016 | 36 | 307 | 8.0 | 27.4 | 0.00 | 0.00 | 0.00 | 27 | 1009.7 |
| 20260506211016 | 36 | 327 | 8.0 | 22.5 | 0.00 | 0.00 | 0.00 | 26 | 1009.7 |
| 20260506210016 | 36 | 343 | 6.4 | 14.5 | 0.00 | 0.00 | 0.00 | 26 | 1009.8 |
| 20260506205016 | 37 | 303 | 6.4 | 14.5 | 0.00 | 0.00 | 0.00 | 25 | 1010.0 |
| 20260506204016 | 37 | 289 | 6.4 | 16.1 | 0.00 | 0.00 | 0.00 | 25 | 1010.1 |
| 20260506203016 | 37 | 239 | 3.2 | 9.7 | 0.00 | 0.00 | 0.00 | 24 | 1010.2 |
| 20260506202036 | 37 | 303 | 6.4 | 16.1 | 0.00 | 0.00 | 0.00 | 23 | 1010.3 |
| 20260506201016 | 37 | 282 | 6.4 | 14.5 | 0.00 | 0.00 | 0.00 | 24 | 1010.4 |
| 20260506200016 | 37 | 288 | 3.2 | 12.9 | 0.00 | 0.00 | 0.00 | 24 | 1010.5 |
| 20260506195016 | 36 | 307 | 3.2 | 8.0 | 0.00 | 0.00 | 0.00 | 27 | 1010.7 |
| 20260506194016 | 36 | 181 | 4.8 | 16.1 | 0.00 | 0.00 | 0.00 | 27 | 1010.8 |
| 20260506193036 | 36 | 300 | 4.8 | 16.1 | 0.00 | 0.00 | 0.00 | 28 | 1011.1 |
| 20260506192016 | 35 | 323 | 3.2 | 11.3 | 0.00 | 0.00 | 0.00 | 30 | 1011.3 |
| 20260506191016 | 35 | 260 | 4.8 | 16.1 | 0.00 | 0.00 | 0.00 | 30 | 1011.4 |
| 20260506190018 | 35 | 285 | 6.4 | 16.1 | 0.00 | 0.00 | 0.00 | 31 | 1011.5 |
| 20260506185016 | 35 | 236 | 4.8 | 9.7 | 0.00 | 0.00 | 0.00 | 32 | 1011.7 |
| 20260506184016 | 34 | 176 | 1.6 | 11.3 | 0.00 | 0.00 | 0.00 | 34 | 1011.8 |
| 20260506183057 | 33 | 355 | 6.4 | 17.7 | 0.00 | 0.00 | 0.00 | 36 | 1011.9 |
| 20260506182016 | 33 | 321 | 4.8 | 12.9 | 0.00 | 0.00 | 0.00 | 36 | 1011.9 |
| 20260506181036 | 33 | 303 | 4.8 | 16.1 | 0.00 | 0.00 | 0.00 | 38 | 1012.0 |
| 20260506180016 | 32 | 335 | 9.7 | 16.1 | 0.00 | 0.00 | 0.00 | 38 | 1012.1 |
| 20260506175016 | 32 | 293 | 4.8 | 16.1 | 0.00 | 0.00 | 0.00 | 39 | 1012.1 |
| 20260506174016 | 32 | 336 | 6.4 | 16.1 | 0.00 | 0.00 | 0.00 | 39 | 1012.3 |
| 20260506173016 | 32 | 330 | 6.4 | 14.5 | 0.00 | 0.00 | 0.00 | 37 | 1012.3 |
| 20260506172016 | 32 | 325 | 3.2 | 8.0 | 0.00 | 0.00 | 0.00 | 40 | 1012.3 |
| 20260506171017 | 32 | 310 | 3.2 | 11.3 | 0.00 | 0.00 | 0.00 | 39 | 1012.3 |
| 20260506170016 | 32 | 70 | 3.2 | 4.8 | 0.00 | 0.00 | 0.00 | 40 | 1012.2 |
| 20260506165016 | 31 | 15 | 3.2 | 6.4 | 0.00 | 0.00 | 0.00 | 42 | 1012.2 |
| 20260506164018 | 31 | 284 | 3.2 | 6.4 | 0.00 | 0.00 | 0.00 | 45 | 1012.2 |
| 20260506163057 | 31 | 143 | 1.6 | 3.2 | 0.00 | 0.00 | 0.00 | 46 | 1012.1 |
| 20260506162016 | 31 | 129 | 1.6 | 4.8 | 0.00 | 0.00 | 0.00 | 47 | 1012.1 |
| 20260506161036 | 30 | 166 | 3.2 | 8.0 | 0.00 | 0.00 | 0.00 | 50 | 1012.1 |
| 20260506160056 | 30 | 103 | 3.2 | 6.4 | 0.00 | 0.00 | 0.00 | 51 | 1012.0 |
| 20260506155036 | 29 | 167 | 1.6 | 4.8 | 0.00 | 0.00 | 0.00 | 52 | 1012.1 |
| 20260506154016 | 28 | 204 | 1.6 | 4.8 | 0.00 | 0.00 | 0.00 | 55 | 1012.1 |
| 20260506153016 | 28 | 191 | 3.2 | 4.8 | 0.00 | 0.00 | 0.00 | 56 | 1012.2 |
| 20260506152016 | 27 | 211 | 1.6 | 4.8 | 0.00 | 0.00 | 0.00 | 59 | 1012.1 |
| 20260506151016 | 27 | 181 | 1.6 | 4.8 | 0.00 | 0.00 | 0.00 | 60 | 1012.1 |
| 20260506150016 | 26 | 147 | 3.2 | 4.8 | 0.00 | 0.00 | 0.00 | 61 | 1012.1 |
| 20260506145016 | 26 | 214 | 1.6 | 4.8 | 0.00 | 0.00 | 0.00 | 64 | 1012.1 |
| 20260506144016 | 25 | 147 | 1.6 | 3.2 | 0.00 | 0.00 | 0.00 | 66 | 1012.0 |
| 20260506143016 | 24 | 185 | 1.6 | 3.2 | 0.00 | 0.00 | 0.00 | 68 | 1012.0 |
| 20260506142016 | 23 | 175 | 3.2 | 6.4 | 0.00 | 0.00 | 0.00 | 69 | 1012.0 |
| 20260506141016 | 24 | 178 | 1.6 | 3.2 | 0.00 | 0.00 | 0.00 | 68 | 1012.1 |
| 20260506140016 | 23 | 229 | 1.6 | 3.2 | 0.00 | 0.00 | 0.00 | 71 | 1012.0 |
| 20260506135016 | 22 | 255 | 1.6 | 4.8 | 0.00 | 0.00 | 0.00 | 74 | 1011.9 |
| 20260506134017 | 21 | 312 | 3.2 | 6.4 | 0.00 | 0.00 | 0.00 | 75 | 1011.7 |
| 20260506133036 | 21 | 293 | 1.6 | 4.8 | 0.00 | 0.00 | 0.00 | 76 | 1011.6 |
| 20260506132017 | 21 | 297 | 3.2 | 6.4 | 0.00 | 0.00 | 0.00 | 78 | 1011.4 |
| 20260506131016 | 20 | 293 | 1.6 | 3.2 | 0.00 | 0.00 | 0.00 | 80 | 1011.2 |
| 20260506130016 | 20 | 293 | 1.6 | 3.2 | 0.00 | 0.00 | 0.00 | 80 | 1011.0 |
| 20260506125017 | 20 | 294 | 1.6 | 3.2 | 0.00 | 0.00 | 0.00 | 79 | 1010.9 |
| 20260506124016 | 20 | 316 | 3.2 | 4.8 | 0.00 | 0.00 | 0.00 | 77 | 1010.9 |
| 20260506123036 | 20 | 293 | 1.6 | 4.8 | 0.00 | 0.00 | 0.00 | 73 | 1010.9 |
| 20260506122036 | 21 | 297 | 3.2 | 9.7 | 0.00 | 0.00 | 0.00 | 72 | 1010.9 |
| 20260506121016 | 21 | 103 | 1.6 | 3.2 | 0.00 | 0.00 | 0.00 | 69 | 1010.7 |
| 20260506120016 | 21 | 102 | 3.2 | 4.8 | 0.00 | 0.00 | 0.00 | 70 | 1010.7 |
| 20260506115016 | 21 | 91 | 3.2 | 4.8 | 0.00 | 0.00 | 0.00 | 70 | 1010.7 |
| 20260506114016 | 21 | 70 | 0.0 | 3.2 | 0.00 | 0.00 | 0.00 | 72 | 1010.6 |
| 20260506113016 | 21 | 70 | 1.6 | 3.2 | 0.00 | 0.00 | 0.00 | 73 | 1010.6 |
| 20260506112016 | 21 | 70 | 1.6 | 3.2 | 0.00 | 0.00 | 0.00 | 72 | 1010.6 |
| 20260506111016 | 21 | 70 | 0.0 | 3.2 | 0.00 | 0.00 | 0.00 | 74 | 1010.5 |
| 20260506110016 | 21 | 70 | 0.0 | 3.2 | 0.00 | 0.00 | 0.00 | 70 | 1010.6 |
| 20260506105016 | 21 | 86 | 0.0 | 3.2 | 0.00 | 0.00 | 0.00 | 69 | 1010.6 |
| 20260506104016 | 21 | 86 | 0.0 | 3.2 | 0.00 | 0.00 | 0.00 | 69 | 1010.5 |
| 20260506103016 | 21 | 86 | 1.6 | 3.2 | 0.00 | 0.00 | 0.00 | 69 | 1010.5 |
| 20260506102016 | 21 | 57 | 1.6 | 6.4 | 0.00 | 0.00 | 0.00 | 69 | 1010.4 |
| 20260506101036 | 21 | 80 | 3.2 | 4.8 | 0.00 | 0.00 | 0.00 | 70 | 1010.4 |
| 20260506100016 | 22 | 77 | 1.6 | 4.8 | 0.00 | 0.00 | 0.00 | 72 | 1010.4 |
| 20260506095056 | 21 | 196 | 1.6 | 3.2 | 0.00 | 0.00 | 0.00 | 73 | 1010.4 |
| 20260506094036 | 21 | 253 | 1.6 | 3.2 | 0.00 | 0.00 | 0.00 | 73 | 1010.5 |
| 20260506093016 | 21 | 253 | 1.6 | 3.2 | 0.00 | 0.00 | 0.00 | 73 | 1010.4 |
| 20260506092016 | 21 | 251 | 1.6 | 3.2 | 0.00 | 0.00 | 0.00 | 73 | 1010.4 |
| 20260506091016 | 22 | 178 | 0.0 | 3.2 | 0.00 | 0.00 | 0.00 | 73 | 1010.3 |
| 20260506090016 | 22 | 211 | 1.6 | 3.2 | 0.00 | 0.00 | 0.00 | 78 | 1010.5 |
| 20260506085016 | 22 | 225 | 1.6 | 3.2 | 0.00 | 0.00 | 0.00 | 80 | 1010.6 |
| 20260506084016 | 22 | 225 | 1.6 | 3.2 | 0.00 | 0.00 | 0.00 | 79 | 1010.6 |
| 20260506083016 | 22 | 225 | 0.0 | 3.2 | 0.00 | 0.00 | 0.00 | 79 | 1010.6 |
| 20260506082016 | 22 | 225 | 0.0 | 3.2 | 0.00 | 0.00 | 0.00 | 78 | 1010.6 |
| 20260506081017 | 22 | 219 | 0.0 | 3.2 | 0.00 | 0.00 | 0.00 | 77 | 1010.7 |